sensor_id;sensor_type;location;lat;lon;timestamp;temperature;humidity
1455;DHT22;721;48.168;12.818;2023-07-31T00:01:10;18.80;1.00
1455;DHT22;721;48.168;12.818;2023-07-31T00:03:37;18.90;1.00
1455;DHT22;721;48.168;12.818;2023-07-31T00:06:04;18.90;1.00
1455;DHT22;721;48.168;12.818;2023-07-31T00:08:31;18.80;1.00
1455;DHT22;721;48.168;12.818;2023-07-31T00:10:58;18.70;1.00
1455;DHT22;721;48.168;12.818;2023-07-31T00:13:26;18.90;1.00
1455;DHT22;721;48.168;12.818;2023-07-31T00:15:53;18.80;1.00
1455;DHT22;721;48.168;12.818;2023-07-31T00:18:20;18.80;1.00
1455;DHT22;721;48.168;12.818;2023-07-31T00:20:47;19.10;1.00
1455;DHT22;721;48.168;12.818;2023-07-31T00:23:13;18.80;1.00
1455;DHT22;721;48.168;12.818;2023-07-31T00:25:40;18.90;1.00
1455;DHT22;721;48.168;12.818;2023-07-31T00:28:06;18.90;1.00
1455;DHT22;721;48.168;12.818;2023-07-31T00:30:35;19.00;1.00
1455;DHT22;721;48.168;12.818;2023-07-31T00:33:01;19.10;1.00
1455;DHT22;721;48.168;12.818;2023-07-31T00:35:28;19.10;1.00
1455;DHT22;721;48.168;12.818;2023-07-31T00:37:57;19.10;1.00
1455;DHT22;721;48.168;12.818;2023-07-31T00:40:24;19.20;1.00
1455;DHT22;721;48.168;12.818;2023-07-31T00:42:51;19.10;1.00
1455;DHT22;721;48.168;12.818;2023-07-31T00:45:17;19.20;1.00
1455;DHT22;721;48.168;12.818;2023-07-31T00:47:46;19.10;1.00
1455;DHT22;721;48.168;12.818;2023-07-31T00:50:13;19.00;1.00
1455;DHT22;721;48.168;12.818;2023-07-31T00:52:41;19.00;1.00
1455;DHT22;721;48.168;12.818;2023-07-31T00:55:08;18.90;1.00
1455;DHT22;721;48.168;12.818;2023-07-31T00:57:36;18.80;1.00
1455;DHT22;721;48.168;12.818;2023-07-31T01:00:05;18.80;1.00
1455;DHT22;721;48.168;12.818;2023-07-31T01:02:33;18.80;1.00
1455;DHT22;721;48.168;12.818;2023-07-31T01:05:01;18.80;1.00
1455;DHT22;721;48.168;12.818;2023-07-31T01:07:34;18.60;1.00
1455;DHT22;721;48.168;12.818;2023-07-31T01:10:07;18.50;1.00
1455;DHT22;721;48.168;12.818;2023-07-31T01:12:34;18.50;1.00
1455;DHT22;721;48.168;12.818;2023-07-31T01:15:05;18.40;1.00
1455;DHT22;721;48.168;12.818;2023-07-31T01:17:32;18.30;1.00
1455;DHT22;721;48.168;12.818;2023-07-31T01:20:02;18.20;1.00
1455;DHT22;721;48.168;12.818;2023-07-31T01:25:48;18.10;1.00
1455;DHT22;721;48.168;12.818;2023-07-31T01:28:20;18.10;1.00
1455;DHT22;721;48.168;12.818;2023-07-31T01:30:48;18.10;1.00
1455;DHT22;721;48.168;12.818;2023-07-31T01:33:16;18.00;1.00
1455;DHT22;721;48.168;12.818;2023-07-31T01:35:45;18.00;1.00
1455;DHT22;721;48.168;12.818;2023-07-31T01:38:13;17.90;2.10
1455;DHT22;721;48.168;12.818;2023-07-31T01:40:41;17.90;1.90
1455;DHT22;721;48.168;12.818;2023-07-31T01:43:10;17.90;1.70
1455;DHT22;721;48.168;12.818;2023-07-31T01:45:37;17.90;1.30
1455;DHT22;721;48.168;12.818;2023-07-31T01:48:04;17.90;1.60
1455;DHT22;721;48.168;12.818;2023-07-31T01:50:31;17.80;2.10
1455;DHT22;721;48.168;12.818;2023-07-31T01:52:57;17.70;2.50
1455;DHT22;721;48.168;12.818;2023-07-31T01:55:24;17.60;2.60
1455;DHT22;721;48.168;12.818;2023-07-31T01:57:51;17.60;3.10
1455;DHT22;721;48.168;12.818;2023-07-31T02:00:20;17.50;3.20
1455;DHT22;721;48.168;12.818;2023-07-31T02:02:47;17.50;3.10
1455;DHT22;721;48.168;12.818;2023-07-31T02:05:13;17.50;3.00
1455;DHT22;721;48.168;12.818;2023-07-31T02:07:40;17.60;2.90
1455;DHT22;721;48.168;12.818;2023-07-31T02:10:07;17.70;3.00
1455;DHT22;721;48.168;12.818;2023-07-31T02:12:34;17.70;3.60
1455;DHT22;721;48.168;12.818;2023-07-31T02:15:01;17.80;3.20
1455;DHT22;721;48.168;12.818;2023-07-31T02:17:29;17.70;3.00
1455;DHT22;721;48.168;12.818;2023-07-31T02:19:56;17.70;4.00
1455;DHT22;721;48.168;12.818;2023-07-31T02:22:23;17.80;3.40
1455;DHT22;721;48.168;12.818;2023-07-31T02:24:50;17.70;3.20
1455;DHT22;721;48.168;12.818;2023-07-31T02:27:17;17.80;3.70
1455;DHT22;721;48.168;12.818;2023-07-31T02:29:44;17.80;4.10
1455;DHT22;721;48.168;12.818;2023-07-31T02:32:11;17.80;4.00
1455;DHT22;721;48.168;12.818;2023-07-31T02:34:39;17.70;4.10
1455;DHT22;721;48.168;12.818;2023-07-31T02:37:06;17.70;4.90
1455;DHT22;721;48.168;12.818;2023-07-31T02:39:32;17.70;4.90
1455;DHT22;721;48.168;12.818;2023-07-31T02:41:59;17.80;4.80
1455;DHT22;721;48.168;12.818;2023-07-31T02:44:26;18.20;6.00
1455;DHT22;721;48.168;12.818;2023-07-31T02:46:53;18.00;7.90
1455;DHT22;721;48.168;12.818;2023-07-31T02:49:20;17.60;7.00
1455;DHT22;721;48.168;12.818;2023-07-31T02:51:48;17.70;7.30
1455;DHT22;721;48.168;12.818;2023-07-31T02:54:15;17.50;7.60
1455;DHT22;721;48.168;12.818;2023-07-31T02:56:42;17.60;8.70
1455;DHT22;721;48.168;12.818;2023-07-31T02:59:08;17.50;8.90
1455;DHT22;721;48.168;12.818;2023-07-31T03:01:35;17.60;9.50
1455;DHT22;721;48.168;12.818;2023-07-31T03:04:02;17.60;8.30
1455;DHT22;721;48.168;12.818;2023-07-31T03:06:29;17.60;9.30
1455;DHT22;721;48.168;12.818;2023-07-31T03:08:58;17.60;8.70
1455;DHT22;721;48.168;12.818;2023-07-31T03:11:24;17.70;7.70
1455;DHT22;721;48.168;12.818;2023-07-31T03:13:51;17.70;8.50
1455;DHT22;721;48.168;12.818;2023-07-31T03:16:18;17.60;9.90
1455;DHT22;721;48.168;12.818;2023-07-31T03:18:45;17.50;11.50
1455;DHT22;721;48.168;12.818;2023-07-31T03:21:12;17.70;11.30
1455;DHT22;721;48.168;12.818;2023-07-31T03:23:39;17.40;9.50
1455;DHT22;721;48.168;12.818;2023-07-31T03:26:08;17.50;9.50
1455;DHT22;721;48.168;12.818;2023-07-31T03:28:34;17.60;10.20
1455;DHT22;721;48.168;12.818;2023-07-31T03:31:01;17.50;11.60
1455;DHT22;721;48.168;12.818;2023-07-31T03:33:28;17.30;11.80
1455;DHT22;721;48.168;12.818;2023-07-31T03:35:55;17.40;10.00
1455;DHT22;721;48.168;12.818;2023-07-31T03:38:22;17.40;10.20
1455;DHT22;721;48.168;12.818;2023-07-31T03:40:49;17.40;10.30
1455;DHT22;721;48.168;12.818;2023-07-31T03:43:17;17.50;10.30
1455;DHT22;721;48.168;12.818;2023-07-31T03:45:44;17.50;12.00
1455;DHT22;721;48.168;12.818;2023-07-31T03:48:11;17.30;11.90
1455;DHT22;721;48.168;12.818;2023-07-31T03:50:38;17.30;12.20
1455;DHT22;721;48.168;12.818;2023-07-31T03:53:05;17.20;13.00
1455;DHT22;721;48.168;12.818;2023-07-31T03:55:31;17.10;13.40
1455;DHT22;721;48.168;12.818;2023-07-31T03:57:58;17.20;11.60
1455;DHT22;721;48.168;12.818;2023-07-31T04:00:28;17.20;14.40
1455;DHT22;721;48.168;12.818;2023-07-31T04:02:54;17.20;13.00
1455;DHT22;721;48.168;12.818;2023-07-31T04:05:21;17.20;12.70
1455;DHT22;721;48.168;12.818;2023-07-31T04:07:48;17.40;13.60
1455;DHT22;721;48.168;12.818;2023-07-31T04:10:15;17.30;12.40
1455;DHT22;721;48.168;12.818;2023-07-31T04:12:42;17.30;11.70
1455;DHT22;721;48.168;12.818;2023-07-31T04:15:09;17.40;11.20
1455;DHT22;721;48.168;12.818;2023-07-31T04:17:37;17.50;12.00
1455;DHT22;721;48.168;12.818;2023-07-31T04:20:05;17.70;12.30
1455;DHT22;721;48.168;12.818;2023-07-31T04:22:32;17.50;12.70
1455;DHT22;721;48.168;12.818;2023-07-31T04:24:59;17.60;11.40
1455;DHT22;721;48.168;12.818;2023-07-31T04:27:26;17.60;11.70
1455;DHT22;721;48.168;12.818;2023-07-31T04:29:53;17.60;11.50
1455;DHT22;721;48.168;12.818;2023-07-31T04:32:19;17.70;11.80
1455;DHT22;721;48.168;12.818;2023-07-31T04:34:48;17.60;11.60
1455;DHT22;721;48.168;12.818;2023-07-31T04:37:14;17.50;12.20
1455;DHT22;721;48.168;12.818;2023-07-31T04:39:41;17.50;11.70
1455;DHT22;721;48.168;12.818;2023-07-31T04:42:08;17.60;11.30
1455;DHT22;721;48.168;12.818;2023-07-31T04:44:35;17.60;11.30
1455;DHT22;721;48.168;12.818;2023-07-31T04:47:02;17.60;10.80
1455;DHT22;721;48.168;12.818;2023-07-31T04:49:29;17.70;9.90
1455;DHT22;721;48.168;12.818;2023-07-31T04:51:58;17.70;9.20
1455;DHT22;721;48.168;12.818;2023-07-31T04:54:24;17.80;8.10
1455;DHT22;721;48.168;12.818;2023-07-31T04:56:51;17.70;8.40
1455;DHT22;721;48.168;12.818;2023-07-31T04:59:18;17.80;7.80
1455;DHT22;721;48.168;12.818;2023-07-31T05:01:45;17.80;7.80
1455;DHT22;721;48.168;12.818;2023-07-31T05:04:13;17.80;7.80
1455;DHT22;721;48.168;12.818;2023-07-31T05:06:40;17.90;7.60
1455;DHT22;721;48.168;12.818;2023-07-31T05:09:08;17.90;7.80
1455;DHT22;721;48.168;12.818;2023-07-31T05:11:35;18.00;7.30
1455;DHT22;721;48.168;12.818;2023-07-31T05:14:02;18.00;7.50
1455;DHT22;721;48.168;12.818;2023-07-31T05:16:29;18.10;8.00
1455;DHT22;721;48.168;12.818;2023-07-31T05:18:56;18.20;7.60
1455;DHT22;721;48.168;12.818;2023-07-31T05:21:23;18.30;7.80
1455;DHT22;721;48.168;12.818;2023-07-31T05:23:50;18.20;7.50
1455;DHT22;721;48.168;12.818;2023-07-31T05:26:18;18.30;6.20
1455;DHT22;721;48.168;12.818;2023-07-31T05:28:45;18.30;6.60
1455;DHT22;721;48.168;12.818;2023-07-31T05:31:11;18.50;6.80
1455;DHT22;721;48.168;12.818;2023-07-31T05:33:38;18.40;6.70
1455;DHT22;721;48.168;12.818;2023-07-31T05:36:05;18.40;6.40
1455;DHT22;721;48.168;12.818;2023-07-31T05:38:32;18.40;6.40
1455;DHT22;721;48.168;12.818;2023-07-31T05:40:59;18.80;6.40
1455;DHT22;721;48.168;12.818;2023-07-31T05:43:27;18.70;5.70
1455;DHT22;721;48.168;12.818;2023-07-31T05:45:54;18.90;5.70
1455;DHT22;721;48.168;12.818;2023-07-31T05:48:21;18.90;4.60
1455;DHT22;721;48.168;12.818;2023-07-31T05:50:48;18.90;4.90
1455;DHT22;721;48.168;12.818;2023-07-31T05:53:14;19.00;4.40
1455;DHT22;721;48.168;12.818;2023-07-31T05:55:41;19.10;4.40
1455;DHT22;721;48.168;12.818;2023-07-31T05:58:08;19.40;4.60
1455;DHT22;721;48.168;12.818;2023-07-31T06:00:36;19.50;4.50
1455;DHT22;721;48.168;12.818;2023-07-31T06:03:03;19.30;3.80
1455;DHT22;721;48.168;12.818;2023-07-31T06:05:30;19.40;3.40
1455;DHT22;721;48.168;12.818;2023-07-31T06:07:57;19.80;4.40
1455;DHT22;721;48.168;12.818;2023-07-31T06:10:24;19.60;2.90
1455;DHT22;721;48.168;12.818;2023-07-31T06:12:51;19.80;3.90
1455;DHT22;721;48.168;12.818;2023-07-31T06:15:19;19.90;2.80
1455;DHT22;721;48.168;12.818;2023-07-31T06:17:47;20.10;1.00
1455;DHT22;721;48.168;12.818;2023-07-31T06:20:14;20.40;1.10
1455;DHT22;721;48.168;12.818;2023-07-31T06:22:41;20.10;1.00
1455;DHT22;721;48.168;12.818;2023-07-31T06:25:08;20.30;1.00
1455;DHT22;721;48.168;12.818;2023-07-31T06:27:35;20.40;1.00
1455;DHT22;721;48.168;12.818;2023-07-31T06:30:02;20.50;1.00
1455;DHT22;721;48.168;12.818;2023-07-31T06:32:29;20.60;1.00
1455;DHT22;721;48.168;12.818;2023-07-31T06:34:58;20.70;1.00
1455;DHT22;721;48.168;12.818;2023-07-31T06:37:24;21.00;1.00
1455;DHT22;721;48.168;12.818;2023-07-31T06:39:51;20.90;1.00
1455;DHT22;721;48.168;12.818;2023-07-31T06:42:18;21.00;1.00
1455;DHT22;721;48.168;12.818;2023-07-31T06:44:45;21.30;1.00
1455;DHT22;721;48.168;12.818;2023-07-31T06:47:12;21.10;1.00
1455;DHT22;721;48.168;12.818;2023-07-31T06:49:39;21.10;1.00
1455;DHT22;721;48.168;12.818;2023-07-31T06:52:07;21.30;1.00
1455;DHT22;721;48.168;12.818;2023-07-31T06:54:35;21.30;1.00
1455;DHT22;721;48.168;12.818;2023-07-31T06:57:02;21.30;1.00
1455;DHT22;721;48.168;12.818;2023-07-31T06:59:29;21.40;1.00
1455;DHT22;721;48.168;12.818;2023-07-31T07:01:56;21.40;1.00
1455;DHT22;721;48.168;12.818;2023-07-31T07:04:22;21.70;1.00
1455;DHT22;721;48.168;12.818;2023-07-31T07:06:49;21.70;1.00
1455;DHT22;721;48.168;12.818;2023-07-31T07:09:17;21.80;1.00
1455;DHT22;721;48.168;12.818;2023-07-31T07:11:45;22.10;1.00
1455;DHT22;721;48.168;12.818;2023-07-31T07:14:11;21.90;1.00
1455;DHT22;721;48.168;12.818;2023-07-31T07:16:38;22.10;1.00
1455;DHT22;721;48.168;12.818;2023-07-31T07:19:06;22.20;1.00
1455;DHT22;721;48.168;12.818;2023-07-31T07:21:33;22.00;1.00
1455;DHT22;721;48.168;12.818;2023-07-31T07:24:00;22.00;1.00
1455;DHT22;721;48.168;12.818;2023-07-31T07:26:28;22.00;1.00
1455;DHT22;721;48.168;12.818;2023-07-31T07:28:55;21.90;1.00
1455;DHT22;721;48.168;12.818;2023-07-31T07:31:23;22.00;1.00
1455;DHT22;721;48.168;12.818;2023-07-31T07:33:50;22.00;1.00
1455;DHT22;721;48.168;12.818;2023-07-31T07:36:17;22.00;1.00
1455;DHT22;721;48.168;12.818;2023-07-31T07:38:43;22.10;1.00
1455;DHT22;721;48.168;12.818;2023-07-31T07:41:10;22.00;1.00
1455;DHT22;721;48.168;12.818;2023-07-31T07:43:38;22.10;1.00
1455;DHT22;721;48.168;12.818;2023-07-31T07:46:05;22.10;1.00
1455;DHT22;721;48.168;12.818;2023-07-31T07:48:32;22.00;1.00
1455;DHT22;721;48.168;12.818;2023-07-31T07:50:59;22.00;1.00
1455;DHT22;721;48.168;12.818;2023-07-31T07:53:26;22.20;1.00
1455;DHT22;721;48.168;12.818;2023-07-31T07:55:52;22.20;1.00
1455;DHT22;721;48.168;12.818;2023-07-31T07:58:19;22.10;1.00
1455;DHT22;721;48.168;12.818;2023-07-31T08:00:50;22.10;1.00
1455;DHT22;721;48.168;12.818;2023-07-31T08:03:17;22.30;1.00
1455;DHT22;721;48.168;12.818;2023-07-31T08:05:44;22.30;1.00
1455;DHT22;721;48.168;12.818;2023-07-31T08:08:14;22.20;1.00
1455;DHT22;721;48.168;12.818;2023-07-31T08:10:41;22.30;1.00
1455;DHT22;721;48.168;12.818;2023-07-31T08:13:09;22.20;1.00
1455;DHT22;721;48.168;12.818;2023-07-31T08:15:36;22.30;1.00
1455;DHT22;721;48.168;12.818;2023-07-31T08:18:05;22.30;1.00
1455;DHT22;721;48.168;12.818;2023-07-31T08:20:31;22.30;1.00
1455;DHT22;721;48.168;12.818;2023-07-31T08:22:58;22.40;1.00
1455;DHT22;721;48.168;12.818;2023-07-31T08:25:25;22.30;1.00
1455;DHT22;721;48.168;12.818;2023-07-31T08:27:52;22.20;1.00
1455;DHT22;721;48.168;12.818;2023-07-31T08:30:19;22.30;1.00
1455;DHT22;721;48.168;12.818;2023-07-31T08:32:46;22.30;1.00
1455;DHT22;721;48.168;12.818;2023-07-31T08:35:15;22.30;1.00
1455;DHT22;721;48.168;12.818;2023-07-31T08:37:41;22.20;1.00
1455;DHT22;721;48.168;12.818;2023-07-31T08:40:09;22.10;1.00
1455;DHT22;721;48.168;12.818;2023-07-31T08:42:43;21.90;1.00
1455;DHT22;721;48.168;12.818;2023-07-31T08:45:13;22.00;1.00
1455;DHT22;721;48.168;12.818;2023-07-31T08:47:42;22.00;1.00
1455;DHT22;721;48.168;12.818;2023-07-31T08:50:10;21.90;1.00
1455;DHT22;721;48.168;12.818;2023-07-31T08:52:39;22.00;1.00
1455;DHT22;721;48.168;12.818;2023-07-31T08:55:08;22.00;1.00
1455;DHT22;721;48.168;12.818;2023-07-31T08:57:38;21.90;1.00
1455;DHT22;721;48.168;12.818;2023-07-31T09:00:07;22.10;1.00
1455;DHT22;721;48.168;12.818;2023-07-31T09:02:38;22.00;1.00
1455;DHT22;721;48.168;12.818;2023-07-31T09:05:07;22.10;1.00
1455;DHT22;721;48.168;12.818;2023-07-31T09:07:34;22.10;1.00
1455;DHT22;721;48.168;12.818;2023-07-31T09:10:04;22.30;1.00
1455;DHT22;721;48.168;12.818;2023-07-31T09:12:31;22.10;1.00
1455;DHT22;721;48.168;12.818;2023-07-31T09:14:58;22.20;1.00
1455;DHT22;721;48.168;12.818;2023-07-31T09:17:29;22.30;1.00
1455;DHT22;721;48.168;12.818;2023-07-31T09:19:56;22.40;1.00
1455;DHT22;721;48.168;12.818;2023-07-31T09:22:31;22.50;1.00
1455;DHT22;721;48.168;12.818;2023-07-31T09:25:14;22.60;1.00
1455;DHT22;721;48.168;12.818;2023-07-31T09:27:49;22.70;1.00
1455;DHT22;721;48.168;12.818;2023-07-31T09:30:18;22.70;1.00
1455;DHT22;721;48.168;12.818;2023-07-31T09:32:47;22.60;1.00
1455;DHT22;721;48.168;12.818;2023-07-31T09:35:22;22.80;1.00
1455;DHT22;721;48.168;12.818;2023-07-31T09:37:50;22.80;1.00
1455;DHT22;721;48.168;12.818;2023-07-31T09:40:27;22.90;1.00
1455;DHT22;721;48.168;12.818;2023-07-31T09:42:56;23.10;1.00
1455;DHT22;721;48.168;12.818;2023-07-31T09:45:23;23.30;1.00
1455;DHT22;721;48.168;12.818;2023-07-31T09:47:50;23.30;1.00
1455;DHT22;721;48.168;12.818;2023-07-31T09:50:19;23.40;1.00
1455;DHT22;721;48.168;12.818;2023-07-31T09:52:46;23.40;1.00
1455;DHT22;721;48.168;12.818;2023-07-31T09:55:13;23.50;1.00
1455;DHT22;721;48.168;12.818;2023-07-31T09:57:44;23.50;1.00
1455;DHT22;721;48.168;12.818;2023-07-31T10:00:12;23.40;1.00
1455;DHT22;721;48.168;12.818;2023-07-31T10:02:41;23.50;1.00
1455;DHT22;721;48.168;12.818;2023-07-31T10:05:08;23.60;1.00
1455;DHT22;721;48.168;12.818;2023-07-31T10:07:37;23.60;1.00
1455;DHT22;721;48.168;12.818;2023-07-31T10:10:07;23.80;1.00
1455;DHT22;721;48.168;12.818;2023-07-31T10:12:34;23.60;1.00
1455;DHT22;721;48.168;12.818;2023-07-31T10:15:04;23.60;1.00
1455;DHT22;721;48.168;12.818;2023-07-31T10:17:33;23.70;1.00
1455;DHT22;721;48.168;12.818;2023-07-31T10:20:03;23.70;1.00
1455;DHT22;721;48.168;12.818;2023-07-31T10:22:31;23.60;1.00
1455;DHT22;721;48.168;12.818;2023-07-31T10:24:59;23.50;1.00
1455;DHT22;721;48.168;12.818;2023-07-31T10:27:26;23.50;1.00
1455;DHT22;721;48.168;12.818;2023-07-31T10:29:56;23.40;1.00
1455;DHT22;721;48.168;12.818;2023-07-31T10:32:25;23.20;1.00
1455;DHT22;721;48.168;12.818;2023-07-31T10:34:53;23.10;1.00
1455;DHT22;721;48.168;12.818;2023-07-31T10:37:23;23.00;1.00
1455;DHT22;721;48.168;12.818;2023-07-31T10:40:03;22.90;1.00
1455;DHT22;721;48.168;12.818;2023-07-31T10:42:32;23.00;1.00
1455;DHT22;721;48.168;12.818;2023-07-31T10:45:01;22.90;1.00
1455;DHT22;721;48.168;12.818;2023-07-31T10:47:30;22.80;1.00
1455;DHT22;721;48.168;12.818;2023-07-31T10:50:16;22.80;1.00
1455;DHT22;721;48.168;12.818;2023-07-31T10:52:48;23.00;1.00
1455;DHT22;721;48.168;12.818;2023-07-31T10:55:22;22.70;1.00
1455;DHT22;721;48.168;12.818;2023-07-31T10:57:49;22.70;1.00
1455;DHT22;721;48.168;12.818;2023-07-31T11:00:21;22.70;1.00
1455;DHT22;721;48.168;12.818;2023-07-31T11:03:01;22.60;1.00
1455;DHT22;721;48.168;12.818;2023-07-31T11:05:42;22.70;1.00
1455;DHT22;721;48.168;12.818;2023-07-31T11:08:14;23.00;1.00
1455;DHT22;721;48.168;12.818;2023-07-31T11:10:41;23.20;1.00
1455;DHT22;721;48.168;12.818;2023-07-31T11:13:09;23.50;1.00
1455;DHT22;721;48.168;12.818;2023-07-31T11:15:36;23.60;1.00
1455;DHT22;721;48.168;12.818;2023-07-31T11:18:04;23.60;1.00
1455;DHT22;721;48.168;12.818;2023-07-31T11:20:34;23.90;1.00
1455;DHT22;721;48.168;12.818;2023-07-31T11:23:01;24.00;1.00
1455;DHT22;721;48.168;12.818;2023-07-31T11:25:29;24.00;1.00
1455;DHT22;721;48.168;12.818;2023-07-31T11:27:57;24.40;1.00
1455;DHT22;721;48.168;12.818;2023-07-31T11:30:24;24.30;1.00
1455;DHT22;721;48.168;12.818;2023-07-31T11:32:51;23.90;1.00
1455;DHT22;721;48.168;12.818;2023-07-31T11:35:19;23.90;1.00
1455;DHT22;721;48.168;12.818;2023-07-31T11:37:46;24.00;1.00
1455;DHT22;721;48.168;12.818;2023-07-31T11:40:14;24.00;1.00
1455;DHT22;721;48.168;12.818;2023-07-31T11:42:41;24.10;1.00
1455;DHT22;721;48.168;12.818;2023-07-31T11:45:08;24.10;1.00
1455;DHT22;721;48.168;12.818;2023-07-31T11:47:36;24.10;1.00
1455;DHT22;721;48.168;12.818;2023-07-31T11:50:06;24.10;1.00
1455;DHT22;721;48.168;12.818;2023-07-31T11:52:40;23.80;1.00
1455;DHT22;721;48.168;12.818;2023-07-31T11:55:08;23.90;1.00
1455;DHT22;721;48.168;12.818;2023-07-31T11:57:37;23.90;1.00
1455;DHT22;721;48.168;12.818;2023-07-31T12:00:07;24.00;1.00
1455;DHT22;721;48.168;12.818;2023-07-31T12:02:35;24.30;1.00
1455;DHT22;721;48.168;12.818;2023-07-31T12:05:02;24.10;1.00
1455;DHT22;721;48.168;12.818;2023-07-31T12:07:45;24.30;1.00
1455;DHT22;721;48.168;12.818;2023-07-31T12:10:21;24.50;1.00
1455;DHT22;721;48.168;12.818;2023-07-31T12:12:59;24.50;1.00
1455;DHT22;721;48.168;12.818;2023-07-31T12:15:37;24.80;1.00
1455;DHT22;721;48.168;12.818;2023-07-31T12:18:05;24.90;1.00
1455;DHT22;721;48.168;12.818;2023-07-31T12:20:32;24.90;1.00
1455;DHT22;721;48.168;12.818;2023-07-31T12:23:01;25.00;1.00
1455;DHT22;721;48.168;12.818;2023-07-31T12:25:32;25.20;1.00
1455;DHT22;721;48.168;12.818;2023-07-31T12:28:05;25.00;1.00
1455;DHT22;721;48.168;12.818;2023-07-31T12:30:34;25.10;1.00
1455;DHT22;721;48.168;12.818;2023-07-31T12:33:04;25.40;1.00
1455;DHT22;721;48.168;12.818;2023-07-31T12:35:36;25.40;1.00
1455;DHT22;721;48.168;12.818;2023-07-31T12:38:04;25.60;1.00
1455;DHT22;721;48.168;12.818;2023-07-31T12:40:31;25.90;1.00
1455;DHT22;721;48.168;12.818;2023-07-31T12:43:01;26.00;1.00
1455;DHT22;721;48.168;12.818;2023-07-31T12:45:29;26.10;1.00
1455;DHT22;721;48.168;12.818;2023-07-31T12:47:56;26.10;1.00
1455;DHT22;721;48.168;12.818;2023-07-31T12:50:23;26.20;1.00
1455;DHT22;721;48.168;12.818;2023-07-31T12:52:51;26.20;1.00
1455;DHT22;721;48.168;12.818;2023-07-31T12:55:19;26.40;1.00
1455;DHT22;721;48.168;12.818;2023-07-31T12:57:46;26.30;1.00
1455;DHT22;721;48.168;12.818;2023-07-31T13:00:14;26.50;1.00
1455;DHT22;721;48.168;12.818;2023-07-31T13:02:41;26.60;1.00
1455;DHT22;721;48.168;12.818;2023-07-31T13:05:08;26.80;1.00
1455;DHT22;721;48.168;12.818;2023-07-31T13:07:35;26.60;1.00
1455;DHT22;721;48.168;12.818;2023-07-31T13:10:02;26.50;1.00
1455;DHT22;721;48.168;12.818;2023-07-31T13:12:30;26.30;1.00
1455;DHT22;721;48.168;12.818;2023-07-31T13:14:57;26.20;1.00
1455;DHT22;721;48.168;12.818;2023-07-31T13:17:24;26.60;1.00
1455;DHT22;721;48.168;12.818;2023-07-31T13:19:51;26.60;1.00
1455;DHT22;721;48.168;12.818;2023-07-31T13:22:18;27.00;1.00
1455;DHT22;721;48.168;12.818;2023-07-31T13:24:45;27.20;1.00
1455;DHT22;721;48.168;12.818;2023-07-31T13:27:12;27.40;1.00
1455;DHT22;721;48.168;12.818;2023-07-31T13:29:40;27.80;1.00
1455;DHT22;721;48.168;12.818;2023-07-31T13:32:07;28.00;1.00
1455;DHT22;721;48.168;12.818;2023-07-31T13:34:34;27.90;1.00
1455;DHT22;721;48.168;12.818;2023-07-31T13:37:01;27.80;1.00
1455;DHT22;721;48.168;12.818;2023-07-31T13:39:28;27.50;1.00
1455;DHT22;721;48.168;12.818;2023-07-31T13:41:55;27.40;1.00
1455;DHT22;721;48.168;12.818;2023-07-31T13:44:21;27.20;1.00
1455;DHT22;721;48.168;12.818;2023-07-31T13:46:50;27.00;1.00
1455;DHT22;721;48.168;12.818;2023-07-31T13:49:17;27.00;1.00
1455;DHT22;721;48.168;12.818;2023-07-31T13:51:43;27.00;1.00
1455;DHT22;721;48.168;12.818;2023-07-31T13:54:11;26.90;1.00
1455;DHT22;721;48.168;12.818;2023-07-31T13:56:38;26.80;1.00
1455;DHT22;721;48.168;12.818;2023-07-31T13:59:05;26.80;1.00
1455;DHT22;721;48.168;12.818;2023-07-31T14:01:32;26.50;1.00
1455;DHT22;721;48.168;12.818;2023-07-31T14:04:00;26.50;1.00
1455;DHT22;721;48.168;12.818;2023-07-31T14:06:27;26.30;1.00
1455;DHT22;721;48.168;12.818;2023-07-31T14:08:54;26.50;1.00
1455;DHT22;721;48.168;12.818;2023-07-31T14:11:21;26.50;1.00
1455;DHT22;721;48.168;12.818;2023-07-31T14:13:50;26.70;1.00
1455;DHT22;721;48.168;12.818;2023-07-31T14:16:17;26.60;1.00
1455;DHT22;721;48.168;12.818;2023-07-31T14:18:44;26.90;1.00
1455;DHT22;721;48.168;12.818;2023-07-31T14:21:13;27.10;1.00
1455;DHT22;721;48.168;12.818;2023-07-31T14:23:40;27.30;1.00
1455;DHT22;721;48.168;12.818;2023-07-31T14:26:07;27.10;1.00
1455;DHT22;721;48.168;12.818;2023-07-31T14:28:34;27.10;1.00
1455;DHT22;721;48.168;12.818;2023-07-31T14:31:01;27.00;1.00
1455;DHT22;721;48.168;12.818;2023-07-31T14:33:28;27.10;1.00
1455;DHT22;721;48.168;12.818;2023-07-31T14:35:54;27.60;1.00
1455;DHT22;721;48.168;12.818;2023-07-31T14:38:23;27.80;1.00
1455;DHT22;721;48.168;12.818;2023-07-31T14:40:50;27.80;1.00
1455;DHT22;721;48.168;12.818;2023-07-31T14:43:16;27.90;1.00
1455;DHT22;721;48.168;12.818;2023-07-31T14:45:43;28.10;1.00
1455;DHT22;721;48.168;12.818;2023-07-31T14:48:11;28.10;1.00
1455;DHT22;721;48.168;12.818;2023-07-31T14:50:38;28.30;1.00
1455;DHT22;721;48.168;12.818;2023-07-31T14:53:05;28.30;1.00
1455;DHT22;721;48.168;12.818;2023-07-31T14:55:33;28.50;1.00
1455;DHT22;721;48.168;12.818;2023-07-31T14:58:00;28.70;1.00
1455;DHT22;721;48.168;12.818;2023-07-31T15:00:28;28.90;1.00
1455;DHT22;721;48.168;12.818;2023-07-31T15:02:55;29.00;1.00
1455;DHT22;721;48.168;12.818;2023-07-31T15:05:22;29.10;1.00
1455;DHT22;721;48.168;12.818;2023-07-31T15:07:49;29.10;1.00
1455;DHT22;721;48.168;12.818;2023-07-31T15:10:16;28.70;1.00
1455;DHT22;721;48.168;12.818;2023-07-31T15:12:44;28.60;1.00
1455;DHT22;721;48.168;12.818;2023-07-31T15:15:11;28.70;1.00
1455;DHT22;721;48.168;12.818;2023-07-31T15:17:37;28.80;1.00
1455;DHT22;721;48.168;12.818;2023-07-31T15:20:05;28.90;1.00
1455;DHT22;721;48.168;12.818;2023-07-31T15:22:32;28.80;1.00
1455;DHT22;721;48.168;12.818;2023-07-31T15:24:59;28.60;1.00
1455;DHT22;721;48.168;12.818;2023-07-31T15:27:26;28.60;1.00
1455;DHT22;721;48.168;12.818;2023-07-31T15:29:54;28.70;1.00
1455;DHT22;721;48.168;12.818;2023-07-31T15:32:21;29.00;1.00
1455;DHT22;721;48.168;12.818;2023-07-31T15:34:49;29.30;1.00
1455;DHT22;721;48.168;12.818;2023-07-31T15:37:16;29.50;1.00
1455;DHT22;721;48.168;12.818;2023-07-31T15:39:43;29.50;1.00
1455;DHT22;721;48.168;12.818;2023-07-31T15:42:10;29.30;1.00
1455;DHT22;721;48.168;12.818;2023-07-31T15:44:36;29.40;1.00
1455;DHT22;721;48.168;12.818;2023-07-31T15:47:06;29.20;1.00
1455;DHT22;721;48.168;12.818;2023-07-31T15:49:32;29.20;1.00
1455;DHT22;721;48.168;12.818;2023-07-31T15:51:59;28.80;1.00
1455;DHT22;721;48.168;12.818;2023-07-31T15:54:26;28.70;1.00
1455;DHT22;721;48.168;12.818;2023-07-31T15:56:53;28.40;1.00
1455;DHT22;721;48.168;12.818;2023-07-31T15:59:20;28.40;1.00
1455;DHT22;721;48.168;12.818;2023-07-31T16:01:47;28.30;1.00
1455;DHT22;721;48.168;12.818;2023-07-31T16:04:15;28.00;1.00
1455;DHT22;721;48.168;12.818;2023-07-31T16:06:42;27.60;1.00
1455;DHT22;721;48.168;12.818;2023-07-31T16:09:08;27.50;1.00
1455;DHT22;721;48.168;12.818;2023-07-31T16:11:35;27.20;1.00
1455;DHT22;721;48.168;12.818;2023-07-31T16:14:02;26.90;1.00
1455;DHT22;721;48.168;12.818;2023-07-31T16:16:29;26.60;1.00
1455;DHT22;721;48.168;12.818;2023-07-31T16:18:56;26.80;1.00
1455;DHT22;721;48.168;12.818;2023-07-31T16:21:25;26.80;1.00
1455;DHT22;721;48.168;12.818;2023-07-31T16:23:52;26.80;1.00